Terminal Aerodrome Forecast
Issued by NWS Wilmington, OH

Home | Current Version | Previous Version | Text Only | Print | Product List | Glossary On
Versions: 1 2 3 4 5 6 7 8 9 10 11 12 13 14 15 16 17 18 19 20 21
441
FTUS41 KILN 291128
TAFDAY
TAF
KDAY 291128Z 2912/3012 VRB03KT 1SM BR OVC003
     FM291500 04006KT 4SM BR OVC010
     FM291700 04006KT P6SM VCSH OVC022
     FM291900 03006KT P6SM -SHRA SCT025 OVC040
     FM300600 04006KT 4SM -SHRA BR OVC012
     FM300900 04006KT 4SM -SHRA OVC004=

USA.gov is the U.S. government's official web portal to all federal, state and local government web resources and services.